sensor_id;sensor_type;location;lat;lon;timestamp;pressure;altitude;pressure_sealevel;temperature;humidity
68199;BME280;55021;51.554;17.044;2023-07-13T00:12:47;100149.94;;;19.42;76.56
68199;BME280;55021;51.554;17.044;2023-07-13T00:27:50;100192.41;;;19.22;79.95
68199;BME280;55021;51.554;17.044;2023-07-13T00:42:53;100194.53;;;18.64;81.34
68199;BME280;55021;51.554;17.044;2023-07-13T00:57:55;100184.78;;;18.68;81.07
68199;BME280;55021;51.554;17.044;2023-07-13T01:12:58;100212.78;;;18.83;80.15
68199;BME280;55021;51.554;17.044;2023-07-13T01:28:01;100116.13;;;18.36;81.11
68199;BME280;55021;51.554;17.044;2023-07-13T01:43:05;100183.31;;;19.21;77.66
68199;BME280;55021;51.554;17.044;2023-07-13T01:58:07;100165.94;;;18.78;79.40
68199;BME280;55021;51.554;17.044;2023-07-13T02:13:10;100176.72;;;18.73;79.04
68199;BME280;55021;51.554;17.044;2023-07-13T02:28:12;100141.88;;;18.42;79.20
68199;BME280;55021;51.554;17.044;2023-07-13T02:43:15;100147.00;;;18.63;77.34
68199;BME280;55021;51.554;17.044;2023-07-13T02:58:17;100169.31;;;18.73;77.51
68199;BME280;55021;51.554;17.044;2023-07-13T03:13:20;100170.34;;;19.03;77.04
68199;BME280;55021;51.554;17.044;2023-07-13T03:28:23;100163.25;;;18.65;78.67
68199;BME280;55021;51.554;17.044;2023-07-13T03:43:25;100172.66;;;19.06;77.54
68199;BME280;55021;51.554;17.044;2023-07-13T03:58:30;100170.25;;;19.41;77.02
68199;BME280;55021;51.554;17.044;2023-07-13T04:13:33;100231.41;;;19.80;74.37
68199;BME280;55021;51.554;17.044;2023-07-13T04:28:36;100331.56;;;18.14;74.72
68199;BME280;55021;51.554;17.044;2023-07-13T04:43:38;100399.22;;;17.22;83.20
68199;BME280;55021;51.554;17.044;2023-07-13T04:58:40;100413.19;;;17.47;83.81
68199;BME280;55021;51.554;17.044;2023-07-13T05:13:43;100400.56;;;17.91;82.68
68199;BME280;55021;51.554;17.044;2023-07-13T05:28:45;100416.19;;;18.17;81.91
68199;BME280;55021;51.554;17.044;2023-07-13T05:43:49;100370.56;;;18.29;81.86
68199;BME280;55021;51.554;17.044;2023-07-13T05:58:51;100345.28;;;18.78;82.05
68199;BME280;55021;51.554;17.044;2023-07-13T06:13:54;100372.38;;;18.68;82.59
68199;BME280;55021;51.554;17.044;2023-07-13T06:28:57;100356.25;;;19.23;81.06
68199;BME280;55021;51.554;17.044;2023-07-13T06:44:00;100321.88;;;19.69;80.24
68199;BME280;55021;51.554;17.044;2023-07-13T06:59:02;100344.97;;;20.36;77.01
68199;BME280;55021;51.554;17.044;2023-07-13T07:14:05;100396.34;;;20.42;76.61
68199;BME280;55021;51.554;17.044;2023-07-13T07:29:07;100461.88;;;18.95;82.84
68199;BME280;55021;51.554;17.044;2023-07-13T07:44:09;100448.25;;;19.27;83.68
68199;BME280;55021;51.554;17.044;2023-07-13T07:59:12;100456.78;;;20.37;78.35
68199;BME280;55021;51.554;17.044;2023-07-13T08:14:14;100344.50;;;20.94;75.63
68199;BME280;55021;51.554;17.044;2023-07-13T08:29:17;100373.59;;;22.02;73.82
68199;BME280;55021;51.554;17.044;2023-07-13T08:44:25;100393.06;;;22.42;71.00
68199;BME280;55021;51.554;17.044;2023-07-13T08:59:33;100414.53;;;22.75;70.54
68199;BME280;55021;51.554;17.044;2023-07-13T09:14:42;100414.00;;;23.69;65.27
68199;BME280;55021;51.554;17.044;2023-07-13T09:29:50;100419.28;;;24.49;61.69
68199;BME280;55021;51.554;17.044;2023-07-13T09:44:56;100410.69;;;24.17;60.96
68199;BME280;55021;51.554;17.044;2023-07-13T09:59:59;100405.50;;;24.54;59.10
68199;BME280;55021;51.554;17.044;2023-07-13T10:15:03;100443.53;;;24.97;54.24
68199;BME280;55021;51.554;17.044;2023-07-13T10:30:12;100458.78;;;24.77;54.21
68199;BME280;55021;51.554;17.044;2023-07-13T10:45:18;100460.44;;;25.60;53.56
68199;BME280;55021;51.554;17.044;2023-07-13T11:00:21;100465.69;;;25.13;55.45
68199;BME280;55021;51.554;17.044;2023-07-13T11:15:43;100388.03;;;24.75;56.98
68199;BME280;55021;51.554;17.044;2023-07-13T11:30:49;100468.72;;;25.55;56.07
68199;BME280;55021;51.554;17.044;2023-07-13T11:45:52;100461.28;;;26.14;54.72
68199;BME280;55021;51.554;17.044;2023-07-13T12:00:56;100455.22;;;26.96;51.72
68199;BME280;55021;51.554;17.044;2023-07-13T12:16:00;100449.38;;;27.54;50.89
68199;BME280;55021;51.554;17.044;2023-07-13T12:31:04;100449.72;;;27.63;48.34
68199;BME280;55021;51.554;17.044;2023-07-13T12:46:17;100387.88;;;26.94;45.67
68199;BME280;55021;51.554;17.044;2023-07-13T13:01:21;100400.03;;;27.35;43.89
68199;BME280;55021;51.554;17.044;2023-07-13T13:16:32;100393.41;;;28.67;37.53
68199;BME280;55021;51.554;17.044;2023-07-13T13:31:35;100377.88;;;27.85;39.11
68199;BME280;55021;51.554;17.044;2023-07-13T13:46:40;100349.72;;;26.37;41.86
68199;BME280;55021;51.554;17.044;2023-07-13T14:59:21;100455.13;;;23.49;74.49
68199;BME280;55021;51.554;17.044;2023-07-13T15:14:23;100445.84;;;23.55;70.80
68199;BME280;55021;51.554;17.044;2023-07-13T15:29:26;100418.59;;;24.25;64.61
68199;BME280;55021;51.554;17.044;2023-07-13T15:44:31;100398.63;;;24.06;61.80
68199;BME280;55021;51.554;17.044;2023-07-13T15:59:33;100426.72;;;24.31;65.47
68199;BME280;55021;51.554;17.044;2023-07-13T16:14:36;100381.97;;;24.23;60.16
68199;BME280;55021;51.554;17.044;2023-07-13T16:29:39;100391.97;;;24.57;60.13
68199;BME280;55021;51.554;17.044;2023-07-13T16:44:42;100442.59;;;24.36;61.79
68199;BME280;55021;51.554;17.044;2023-07-13T16:59:50;100435.75;;;23.49;66.76
68199;BME280;55021;51.554;17.044;2023-07-13T17:14:52;100446.81;;;23.77;68.37
68199;BME280;55021;51.554;17.044;2023-07-13T17:29:55;100438.59;;;24.10;65.40
68199;BME280;55021;51.554;17.044;2023-07-13T17:44:57;100451.66;;;23.70;67.05
68199;BME280;55021;51.554;17.044;2023-07-13T18:00:00;100468.31;;;23.30;69.50
68199;BME280;55021;51.554;17.044;2023-07-13T18:15:03;100466.66;;;23.06;69.71
68199;BME280;55021;51.554;17.044;2023-07-13T18:30:08;100495.31;;;22.53;71.41
68199;BME280;55021;51.554;17.044;2023-07-13T18:45:12;100515.78;;;21.15;78.41
68199;BME280;55021;51.554;17.044;2023-07-13T19:00:15;100516.31;;;21.24;77.44
68199;BME280;55021;51.554;17.044;2023-07-13T19:15:20;100543.72;;;20.76;78.79
68199;BME280;55021;51.554;17.044;2023-07-13T19:30:24;100577.00;;;20.25;80.91
68199;BME280;55021;51.554;17.044;2023-07-13T19:45:26;100534.53;;;20.01;79.92
68199;BME280;55021;51.554;17.044;2023-07-13T20:00:28;100588.28;;;20.17;78.78
68199;BME280;55021;51.554;17.044;2023-07-13T20:15:31;100572.34;;;20.25;76.37
68199;BME280;55021;51.554;17.044;2023-07-13T20:30:36;100606.06;;;19.63;75.54
68199;BME280;55021;51.554;17.044;2023-07-13T20:45:44;100617.69;;;19.72;76.53
68199;BME280;55021;51.554;17.044;2023-07-13T21:00:48;100606.47;;;18.50;80.73
68199;BME280;55021;51.554;17.044;2023-07-13T21:15:51;100633.94;;;18.96;76.17
68199;BME280;55021;51.554;17.044;2023-07-13T21:30:57;100600.31;;;18.81;73.23
68199;BME280;55021;51.554;17.044;2023-07-13T21:46:01;100589.03;;;19.42;72.91
68199;BME280;55021;51.554;17.044;2023-07-13T22:01:13;100571.97;;;18.15;77.11
68199;BME280;55021;51.554;17.044;2023-07-13T22:16:19;100619.31;;;17.70;78.16
68199;BME280;55021;51.554;17.044;2023-07-13T22:31:23;100665.31;;;17.74;79.48
68199;BME280;55021;51.554;17.044;2023-07-13T22:46:30;100659.22;;;17.79;78.61
68199;BME280;55021;51.554;17.044;2023-07-13T23:01:35;100609.66;;;16.77;80.45
68199;BME280;55021;51.554;17.044;2023-07-13T23:16:39;100667.25;;;16.63;77.56
68199;BME280;55021;51.554;17.044;2023-07-13T23:31:42;100701.59;;;17.42;73.31
68199;BME280;55021;51.554;17.044;2023-07-13T23:46:48;100704.75;;;17.11;74.30
